sensor_id;sensor_type;location;lat;lon;timestamp;pressure;altitude;pressure_sealevel;temperature;humidity
61568;BME280;47462;59.172;17.196;2022-12-18T00:01:33;101694.31;;;-0.85;86.26
61568;BME280;47462;59.172;17.196;2022-12-18T00:03:59;101707.81;;;-0.65;86.24
61568;BME280;47462;59.172;17.196;2022-12-18T00:06:27;101666.69;;;-0.94;86.33
61568;BME280;47462;59.172;17.196;2022-12-18T00:08:53;101707.72;;;-0.68;86.66
61568;BME280;47462;59.172;17.196;2022-12-18T00:11:21;101711.22;;;-0.66;86.13
61568;BME280;47462;59.172;17.196;2022-12-18T00:13:48;101597.38;;;-1.24;86.34
61568;BME280;47462;59.172;17.196;2022-12-18T00:16:17;101697.56;;;-0.65;86.39
61568;BME280;47462;59.172;17.196;2022-12-18T00:18:45;101696.66;;;-0.67;86.69
61568;BME280;47462;59.172;17.196;2022-12-18T00:21:11;101602.56;;;-1.22;86.80
61568;BME280;47462;59.172;17.196;2022-12-18T00:23:38;101649.00;;;-0.86;86.36
61568;BME280;47462;59.172;17.196;2022-12-18T00:26:06;101675.53;;;-0.60;86.46
61568;BME280;47462;59.172;17.196;2022-12-18T00:28:32;101684.13;;;-0.58;86.46
61568;BME280;47462;59.172;17.196;2022-12-18T00:33:27;101512.44;;;-1.62;86.31
61568;BME280;47462;59.172;17.196;2022-12-18T00:35:52;101664.22;;;-0.65;86.39
61568;BME280;47462;59.172;17.196;2022-12-18T00:38:18;101674.69;;;-0.59;86.53
61568;BME280;47462;59.172;17.196;2022-12-18T00:40:43;101676.34;;;-0.61;86.32
61568;BME280;47462;59.172;17.196;2022-12-18T00:43:09;101509.94;;;-1.60;86.28
61568;BME280;47462;59.172;17.196;2022-12-18T00:45:34;101660.09;;;-0.61;86.29
61568;BME280;47462;59.172;17.196;2022-12-18T00:48:00;101652.06;;;-0.70;86.45
61568;BME280;47462;59.172;17.196;2022-12-18T00:50:25;101638.91;;;-0.81;86.59
61568;BME280;47462;59.172;17.196;2022-12-18T00:52:52;101282.25;;;-3.12;86.38
61568;BME280;47462;59.172;17.196;2022-12-18T00:55:17;101667.84;;;-0.60;86.52
61568;BME280;47462;59.172;17.196;2022-12-18T00:57:43;101658.19;;;-0.67;86.33
61568;BME280;47462;59.172;17.196;2022-12-18T01:00:12;101679.00;;;-0.58;86.29
61568;BME280;47462;59.172;17.196;2022-12-18T01:02:38;101654.03;;;-0.63;86.41
61568;BME280;47462;59.172;17.196;2022-12-18T01:05:04;101606.22;;;-0.88;86.36
61568;BME280;47462;59.172;17.196;2022-12-18T01:07:30;101519.16;;;-1.40;86.04
61568;BME280;47462;59.172;17.196;2022-12-18T01:09:55;101554.00;;;-1.19;86.45
61568;BME280;47462;59.172;17.196;2022-12-18T01:12:20;101667.13;;;-0.54;86.37
61568;BME280;47462;59.172;17.196;2022-12-18T01:14:46;101655.31;;;-0.50;86.46
61568;BME280;47462;59.172;17.196;2022-12-18T01:17:11;101616.00;;;-0.77;86.74
61568;BME280;47462;59.172;17.196;2022-12-18T01:19:36;101581.69;;;-1.08;86.29
61568;BME280;47462;59.172;17.196;2022-12-18T01:22:02;101379.81;;;-2.25;86.28
61568;BME280;47462;59.172;17.196;2022-12-18T01:24:28;101648.22;;;-0.58;86.60
61568;BME280;47462;59.172;17.196;2022-12-18T01:26:53;101620.06;;;-0.83;86.64
61568;BME280;47462;59.172;17.196;2022-12-18T01:29:19;101684.44;;;-0.48;86.63
61568;BME280;47462;59.172;17.196;2022-12-18T01:31:44;101678.38;;;-0.50;86.82
61568;BME280;47462;59.172;17.196;2022-12-18T01:34:10;101666.44;;;-0.50;86.85
61568;BME280;47462;59.172;17.196;2022-12-18T01:36:37;101674.22;;;-0.47;86.52
61568;BME280;47462;59.172;17.196;2022-12-18T01:39:07;101581.97;;;-0.98;86.39
61568;BME280;47462;59.172;17.196;2022-12-18T01:41:34;101658.69;;;-0.51;86.44
61568;BME280;47462;59.172;17.196;2022-12-18T01:47:29;101664.63;;;-0.52;86.76
61568;BME280;47462;59.172;17.196;2022-12-18T01:49:57;101667.25;;;-0.51;86.33
61568;BME280;47462;59.172;17.196;2022-12-18T01:52:25;101675.63;;;-0.57;86.22
61568;BME280;47462;59.172;17.196;2022-12-18T01:54:53;101670.34;;;-0.61;86.65
61568;BME280;47462;59.172;17.196;2022-12-18T01:57:20;101669.56;;;-0.59;86.71
61568;BME280;47462;59.172;17.196;2022-12-18T01:59:49;101655.44;;;-0.73;86.13
61568;BME280;47462;59.172;17.196;2022-12-18T02:02:17;101667.78;;;-0.61;86.56
61568;BME280;47462;59.172;17.196;2022-12-18T02:04:43;101647.75;;;-0.73;86.05
61568;BME280;47462;59.172;17.196;2022-12-18T02:07:22;101637.53;;;-0.72;86.31
61568;BME280;47462;59.172;17.196;2022-12-18T02:12:20;101656.94;;;-0.52;85.86
61568;BME280;47462;59.172;17.196;2022-12-18T02:15:00;101630.75;;;-0.69;85.71
61568;BME280;47462;59.172;17.196;2022-12-18T02:17:48;101627.78;;;-0.82;86.23
61568;BME280;47462;59.172;17.196;2022-12-18T02:20:35;101678.69;;;-0.67;85.99
61568;BME280;47462;59.172;17.196;2022-12-18T02:28:06;101668.44;;;-0.67;85.94
61568;BME280;47462;59.172;17.196;2022-12-18T02:30:35;101665.84;;;-0.68;85.91
61568;BME280;47462;59.172;17.196;2022-12-18T02:33:05;101664.84;;;-0.72;85.50
61568;BME280;47462;59.172;17.196;2022-12-18T02:35:32;101637.91;;;-0.86;85.39
61568;BME280;47462;59.172;17.196;2022-12-18T02:37:58;101656.34;;;-0.71;85.59
61568;BME280;47462;59.172;17.196;2022-12-18T02:40:26;101622.56;;;-0.85;85.37
61568;BME280;47462;59.172;17.196;2022-12-18T02:42:52;101490.56;;;-1.52;84.87
61568;BME280;47462;59.172;17.196;2022-12-18T02:45:18;101618.31;;;-0.84;85.32
61568;BME280;47462;59.172;17.196;2022-12-18T02:47:47;101657.31;;;-0.67;85.57
61568;BME280;47462;59.172;17.196;2022-12-18T02:50:30;101635.59;;;-0.79;85.78
61568;BME280;47462;59.172;17.196;2022-12-18T03:03:43;101636.22;;;-0.59;85.00
61568;BME280;47462;59.172;17.196;2022-12-18T03:06:32;101640.41;;;-0.62;84.49
61568;BME280;47462;59.172;17.196;2022-12-18T03:09:07;101601.09;;;-0.88;84.59
61568;BME280;47462;59.172;17.196;2022-12-18T03:11:45;101636.69;;;-0.70;84.52
61568;BME280;47462;59.172;17.196;2022-12-18T03:15:02;101569.66;;;-1.10;84.94
61568;BME280;47462;59.172;17.196;2022-12-18T03:17:31;101629.91;;;-0.70;84.59
61568;BME280;47462;59.172;17.196;2022-12-18T03:19:59;101633.38;;;-0.68;84.75
61568;BME280;47462;59.172;17.196;2022-12-18T03:22:30;101625.78;;;-0.65;84.78
61568;BME280;47462;59.172;17.196;2022-12-18T03:24:59;101616.78;;;-0.79;84.74
61568;BME280;47462;59.172;17.196;2022-12-18T03:27:27;101628.19;;;-0.69;84.42
61568;BME280;47462;59.172;17.196;2022-12-18T03:30:08;101619.75;;;-0.67;84.42
61568;BME280;47462;59.172;17.196;2022-12-18T03:32:48;101585.72;;;-0.88;84.29
61568;BME280;47462;59.172;17.196;2022-12-18T03:35:21;101629.94;;;-0.68;84.25
61568;BME280;47462;59.172;17.196;2022-12-18T03:37:48;101420.16;;;-1.92;84.07
61568;BME280;47462;59.172;17.196;2022-12-18T03:40:13;101557.47;;;-1.17;84.31
61568;BME280;47462;59.172;17.196;2022-12-18T03:42:46;101621.13;;;-0.77;84.34
61568;BME280;47462;59.172;17.196;2022-12-18T03:50:22;101627.13;;;-0.76;84.41
61568;BME280;47462;59.172;17.196;2022-12-18T03:52:59;101609.50;;;-0.93;84.61
61568;BME280;47462;59.172;17.196;2022-12-18T03:55:28;101626.00;;;-0.84;84.30
61568;BME280;47462;59.172;17.196;2022-12-18T03:57:56;101621.66;;;-0.87;84.44
61568;BME280;47462;59.172;17.196;2022-12-18T04:00:22;101624.31;;;-0.84;84.42
61568;BME280;47462;59.172;17.196;2022-12-18T04:02:51;101612.38;;;-0.83;84.38
61568;BME280;47462;59.172;17.196;2022-12-18T04:05:19;101548.06;;;-1.17;84.19
61568;BME280;47462;59.172;17.196;2022-12-18T04:07:47;101596.19;;;-0.82;84.17
61568;BME280;47462;59.172;17.196;2022-12-18T04:10:13;101601.31;;;-0.82;84.35
61568;BME280;47462;59.172;17.196;2022-12-18T04:12:40;101548.44;;;-1.06;83.85
61568;BME280;47462;59.172;17.196;2022-12-18T04:15:07;101610.75;;;-0.80;83.77
61568;BME280;47462;59.172;17.196;2022-12-18T04:17:33;101594.53;;;-0.80;84.17
61568;BME280;47462;59.172;17.196;2022-12-18T04:19:58;101596.13;;;-0.84;83.82
61568;BME280;47462;59.172;17.196;2022-12-18T04:22:24;101607.00;;;-0.91;84.04
61568;BME280;47462;59.172;17.196;2022-12-18T04:24:49;101604.44;;;-0.91;84.35
61568;BME280;47462;59.172;17.196;2022-12-18T04:27:14;101609.59;;;-0.90;84.34
61568;BME280;47462;59.172;17.196;2022-12-18T04:29:40;101601.09;;;-0.88;84.19
61568;BME280;47462;59.172;17.196;2022-12-18T04:32:05;101601.09;;;-0.88;84.12
61568;BME280;47462;59.172;17.196;2022-12-18T04:34:32;101524.63;;;-1.29;83.81
61568;BME280;47462;59.172;17.196;2022-12-18T04:36:57;101585.72;;;-0.88;83.94
61568;BME280;47462;59.172;17.196;2022-12-18T04:39:22;101577.69;;;-0.99;83.93
61568;BME280;47462;59.172;17.196;2022-12-18T04:41:48;101582.66;;;-1.04;84.11
61568;BME280;47462;59.172;17.196;2022-12-18T04:44:13;101576.00;;;-0.99;83.93
61568;BME280;47462;59.172;17.196;2022-12-18T04:46:39;101567.91;;;-1.11;83.91
61568;BME280;47462;59.172;17.196;2022-12-18T04:49:04;101595.09;;;-0.89;83.56
61568;BME280;47462;59.172;17.196;2022-12-18T04:51:29;101599.16;;;-0.96;83.65
61568;BME280;47462;59.172;17.196;2022-12-18T04:53:55;101588.19;;;-0.92;83.88
61568;BME280;47462;59.172;17.196;2022-12-18T04:56:20;101586.19;;;-1.00;84.16
61568;BME280;47462;59.172;17.196;2022-12-18T04:58:46;101589.81;;;-0.94;83.80
61568;BME280;47462;59.172;17.196;2022-12-18T05:01:14;101553.09;;;-1.20;83.87
61568;BME280;47462;59.172;17.196;2022-12-18T05:03:40;101563.75;;;-1.08;83.85
61568;BME280;47462;59.172;17.196;2022-12-18T05:06:07;101539.38;;;-1.22;83.86
61568;BME280;47462;59.172;17.196;2022-12-18T05:08:32;101568.09;;;-1.05;83.86
61568;BME280;47462;59.172;17.196;2022-12-18T05:11:02;101571.03;;;-0.94;83.78
61568;BME280;47462;59.172;17.196;2022-12-18T05:13:29;101512.75;;;-1.27;83.45
61568;BME280;47462;59.172;17.196;2022-12-18T05:15:55;101553.66;;;-1.03;83.56
61568;BME280;47462;59.172;17.196;2022-12-18T05:18:21;101555.53;;;-0.97;83.41
61568;BME280;47462;59.172;17.196;2022-12-18T05:20:46;101506.91;;;-1.23;83.56
61568;BME280;47462;59.172;17.196;2022-12-18T05:23:12;101533.66;;;-1.15;83.76
61568;BME280;47462;59.172;17.196;2022-12-18T05:25:37;101511.91;;;-1.26;83.96
61568;BME280;47462;59.172;17.196;2022-12-18T05:28:03;101554.84;;;-0.93;83.83
61568;BME280;47462;59.172;17.196;2022-12-18T05:30:28;101554.97;;;-0.88;83.48
61568;BME280;47462;59.172;17.196;2022-12-18T05:32:54;101520.03;;;-1.12;83.17
61568;BME280;47462;59.172;17.196;2022-12-18T05:35:21;101522.56;;;-1.14;83.19
61568;BME280;47462;59.172;17.196;2022-12-18T05:37:46;101533.59;;;-1.16;83.24
61568;BME280;47462;59.172;17.196;2022-12-18T05:40:12;101549.47;;;-1.01;83.56
61568;BME280;47462;59.172;17.196;2022-12-18T05:42:37;101519.84;;;-1.18;83.24
61568;BME280;47462;59.172;17.196;2022-12-18T05:45:04;101542.50;;;-1.05;83.29
61568;BME280;47462;59.172;17.196;2022-12-18T05:47:30;101551.13;;;-1.01;83.32
61568;BME280;47462;59.172;17.196;2022-12-18T05:49:55;101548.63;;;-1.00;83.39
61568;BME280;47462;59.172;17.196;2022-12-18T05:52:21;101552.22;;;-0.95;83.21
61568;BME280;47462;59.172;17.196;2022-12-18T05:54:46;101500.81;;;-1.27;83.19
61568;BME280;47462;59.172;17.196;2022-12-18T05:57:12;101519.34;;;-1.08;83.01
61568;BME280;47462;59.172;17.196;2022-12-18T05:59:37;101548.19;;;-0.86;82.78
61568;BME280;47462;59.172;17.196;2022-12-18T06:02:03;101549.00;;;-0.87;82.83
61568;BME280;47462;59.172;17.196;2022-12-18T06:04:28;101511.56;;;-1.11;82.92
61568;BME280;47462;59.172;17.196;2022-12-18T06:06:54;101522.19;;;-0.99;82.69
61568;BME280;47462;59.172;17.196;2022-12-18T06:09:19;101518.53;;;-1.07;82.68
61568;BME280;47462;59.172;17.196;2022-12-18T06:11:45;101537.75;;;-0.93;82.94
61568;BME280;47462;59.172;17.196;2022-12-18T06:14:11;101548.91;;;-0.91;83.00
61568;BME280;47462;59.172;17.196;2022-12-18T06:16:36;101503.72;;;-1.16;82.96
61568;BME280;47462;59.172;17.196;2022-12-18T06:19:04;101515.03;;;-1.09;83.11
61568;BME280;47462;59.172;17.196;2022-12-18T06:21:31;101511.47;;;-1.14;82.94
61568;BME280;47462;59.172;17.196;2022-12-18T06:23:57;101535.72;;;-1.03;82.90
61568;BME280;47462;59.172;17.196;2022-12-18T06:26:23;101533.16;;;-1.03;82.80
61568;BME280;47462;59.172;17.196;2022-12-18T06:28:49;101530.69;;;-1.00;82.80
61568;BME280;47462;59.172;17.196;2022-12-18T06:31:14;101529.94;;;-0.97;82.60
61568;BME280;47462;59.172;17.196;2022-12-18T06:33:40;101529.13;;;-0.96;82.86
61568;BME280;47462;59.172;17.196;2022-12-18T06:36:11;101525.75;;;-0.94;82.90
61568;BME280;47462;59.172;17.196;2022-12-18T06:38:41;101526.47;;;-0.99;82.57
61568;BME280;47462;59.172;17.196;2022-12-18T06:41:09;101525.72;;;-0.95;82.85
61568;BME280;47462;59.172;17.196;2022-12-18T06:43:38;101522.38;;;-0.93;82.87
61568;BME280;47462;59.172;17.196;2022-12-18T06:46:04;101542.13;;;-0.90;82.72
61568;BME280;47462;59.172;17.196;2022-12-18T06:48:33;101528.56;;;-0.86;82.92
61568;BME280;47462;59.172;17.196;2022-12-18T06:50:58;101528.66;;;-0.83;82.41
61568;BME280;47462;59.172;17.196;2022-12-18T06:53:24;101548.41;;;-0.80;82.62
61568;BME280;47462;59.172;17.196;2022-12-18T06:55:50;101529.25;;;-0.92;82.48
61568;BME280;47462;59.172;17.196;2022-12-18T06:58:15;101525.94;;;-0.87;82.51
61568;BME280;47462;59.172;17.196;2022-12-18T07:00:41;101521.53;;;-0.93;82.92
61568;BME280;47462;59.172;17.196;2022-12-18T07:03:06;101549.84;;;-0.88;82.69
61568;BME280;47462;59.172;17.196;2022-12-18T07:05:32;101523.06;;;-0.98;83.08
61568;BME280;47462;59.172;17.196;2022-12-18T07:07:57;101542.56;;;-0.76;82.84
61568;BME280;47462;59.172;17.196;2022-12-18T07:10:23;101531.56;;;-0.72;82.86
61568;BME280;47462;59.172;17.196;2022-12-18T07:12:48;101534.13;;;-0.72;82.62
61568;BME280;47462;59.172;17.196;2022-12-18T07:15:14;101543.47;;;-0.74;82.57
61568;BME280;47462;59.172;17.196;2022-12-18T07:17:39;101536.69;;;-0.72;82.85
61568;BME280;47462;59.172;17.196;2022-12-18T07:20:04;101525.38;;;-0.79;83.04
61568;BME280;47462;59.172;17.196;2022-12-18T07:22:30;101529.13;;;-0.67;82.89
61568;BME280;47462;59.172;17.196;2022-12-18T07:24:56;101493.28;;;-0.95;82.73
61568;BME280;47462;59.172;17.196;2022-12-18T07:27:22;101541.19;;;-0.65;82.94
61568;BME280;47462;59.172;17.196;2022-12-18T07:29:49;101543.03;;;-0.61;82.84
61568;BME280;47462;59.172;17.196;2022-12-18T07:32:15;101549.91;;;-0.60;82.74
61568;BME280;47462;59.172;17.196;2022-12-18T07:34:40;101507.19;;;-0.86;82.90
61568;BME280;47462;59.172;17.196;2022-12-18T07:37:06;101530.56;;;-0.77;82.94
61568;BME280;47462;59.172;17.196;2022-12-18T07:39:32;101562.72;;;-0.60;83.50
61568;BME280;47462;59.172;17.196;2022-12-18T07:41:57;101572.59;;;-0.70;83.42
61568;BME280;47462;59.172;17.196;2022-12-18T07:44:42;101546.16;;;-0.69;83.39
61568;BME280;47462;59.172;17.196;2022-12-18T07:47:08;101569.56;;;-0.59;83.51
61568;BME280;47462;59.172;17.196;2022-12-18T07:49:33;101569.53;;;-0.60;83.71
61568;BME280;47462;59.172;17.196;2022-12-18T07:51:59;101501.13;;;-0.90;83.65
61568;BME280;47462;59.172;17.196;2022-12-18T07:54:24;101564.66;;;-0.51;83.72
61568;BME280;47462;59.172;17.196;2022-12-18T07:56:51;101530.13;;;-0.64;83.78
61568;BME280;47462;59.172;17.196;2022-12-18T07:59:17;101505.91;;;-0.72;83.60
61568;BME280;47462;59.172;17.196;2022-12-18T08:01:43;101550.09;;;-0.53;83.63
61568;BME280;47462;59.172;17.196;2022-12-18T08:04:08;101471.19;;;-0.91;83.87
61568;BME280;47462;59.172;17.196;2022-12-18T08:06:34;101545.38;;;-0.40;83.43
61568;BME280;47462;59.172;17.196;2022-12-18T08:08:59;101485.50;;;-0.69;83.56
61568;BME280;47462;59.172;17.196;2022-12-18T08:11:26;101535.28;;;-0.33;83.96
61568;BME280;47462;59.172;17.196;2022-12-18T08:13:52;101534.31;;;-0.37;83.77
61568;BME280;47462;59.172;17.196;2022-12-18T08:16:19;101529.97;;;-0.40;84.03
61568;BME280;47462;59.172;17.196;2022-12-18T08:18:44;101451.88;;;-0.80;84.19
61568;BME280;47462;59.172;17.196;2022-12-18T08:23:39;101493.06;;;-0.45;84.20
61568;BME280;47462;59.172;17.196;2022-12-18T08:26:05;101518.31;;;-0.28;84.68
61568;BME280;47462;59.172;17.196;2022-12-18T08:28:30;101494.94;;;-0.39;84.67
61568;BME280;47462;59.172;17.196;2022-12-18T08:30:56;101509.09;;;-0.22;84.59
61568;BME280;47462;59.172;17.196;2022-12-18T08:33:22;101508.13;;;-0.27;84.56
61568;BME280;47462;59.172;17.196;2022-12-18T08:35:47;101459.53;;;-0.51;84.40
61568;BME280;47462;59.172;17.196;2022-12-18T08:38:13;101489.25;;;-0.29;84.43
61568;BME280;47462;59.172;17.196;2022-12-18T08:40:38;101432.59;;;-0.67;84.25
61568;BME280;47462;59.172;17.196;2022-12-18T08:43:03;101521.47;;;-0.08;84.40
61568;BME280;47462;59.172;17.196;2022-12-18T08:45:47;101398.97;;;-0.78;84.48
61568;BME280;47462;59.172;17.196;2022-12-18T08:48:13;101489.09;;;-0.35;84.20
61568;BME280;47462;59.172;17.196;2022-12-18T08:50:38;101429.28;;;-0.64;84.51
61568;BME280;47462;59.172;17.196;2022-12-18T08:53:03;101463.31;;;-0.40;84.68
61568;BME280;47462;59.172;17.196;2022-12-18T08:55:29;101511.97;;;-0.11;84.88
61568;BME280;47462;59.172;17.196;2022-12-18T08:57:54;101493.72;;;-0.22;84.74
61568;BME280;47462;59.172;17.196;2022-12-18T09:00:20;101496.28;;;-0.22;84.62
61568;BME280;47462;59.172;17.196;2022-12-18T09:02:45;101475.66;;;-0.25;84.90
61568;BME280;47462;59.172;17.196;2022-12-18T09:05:11;101486.31;;;-0.11;84.94
61568;BME280;47462;59.172;17.196;2022-12-18T09:07:36;101493.28;;;-0.07;84.71
61568;BME280;47462;59.172;17.196;2022-12-18T09:10:03;101498.50;;;-0.04;84.64
61568;BME280;47462;59.172;17.196;2022-12-18T09:12:28;101486.47;;;-0.05;84.59
61568;BME280;47462;59.172;17.196;2022-12-18T09:14:56;101495.97;;;-0.02;84.33
61568;BME280;47462;59.172;17.196;2022-12-18T09:17:22;101478.50;;;-0.15;84.87
61568;BME280;47462;59.172;17.196;2022-12-18T09:19:48;101504.09;;;0.13;84.81
61568;BME280;47462;59.172;17.196;2022-12-18T09:22:13;101497.44;;;0.20;84.53
61568;BME280;47462;59.172;17.196;2022-12-18T09:24:38;101444.47;;;-0.08;84.46
61568;BME280;47462;59.172;17.196;2022-12-18T09:27:04;101463.78;;;0.09;84.33
61568;BME280;47462;59.172;17.196;2022-12-18T09:29:29;101444.94;;;0.09;84.89
61568;BME280;47462;59.172;17.196;2022-12-18T09:31:55;101489.28;;;0.37;84.87
61568;BME280;47462;59.172;17.196;2022-12-18T09:34:20;101463.09;;;0.16;84.86
61568;BME280;47462;59.172;17.196;2022-12-18T09:36:48;101464.19;;;0.25;84.80
61568;BME280;47462;59.172;17.196;2022-12-18T09:39:14;101339.31;;;-0.40;84.98
61568;BME280;47462;59.172;17.196;2022-12-18T09:44:22;101481.09;;;0.51;84.84
61568;BME280;47462;59.172;17.196;2022-12-18T09:49:31;101464.09;;;0.57;84.89
61568;BME280;47462;59.172;17.196;2022-12-18T09:54:41;101458.22;;;0.61;84.76
61568;BME280;47462;59.172;17.196;2022-12-18T09:57:18;101457.47;;;0.65;84.82
61568;BME280;47462;59.172;17.196;2022-12-18T09:59:50;101454.13;;;0.67;84.80
61568;BME280;47462;59.172;17.196;2022-12-18T10:02:20;101447.09;;;0.60;85.01
61568;BME280;47462;59.172;17.196;2022-12-18T10:05:00;101463.50;;;0.67;84.89
61568;BME280;47462;59.172;17.196;2022-12-18T10:08:40;101430.63;;;0.53;84.92
61568;BME280;47462;59.172;17.196;2022-12-18T10:10:38;101456.72;;;0.69;85.11
61568;BME280;47462;59.172;17.196;2022-12-18T10:13:36;101467.00;;;0.69;85.23
61568;BME280;47462;59.172;17.196;2022-12-18T10:16:30;101469.59;;;0.70;85.92
61568;BME280;47462;59.172;17.196;2022-12-18T10:19:13;101458.53;;;0.75;85.93
61568;BME280;47462;59.172;17.196;2022-12-18T10:24:33;101463.75;;;0.78;85.75
61568;BME280;47462;59.172;17.196;2022-12-18T10:27:22;101198.19;;;-1.12;85.71
61568;BME280;47462;59.172;17.196;2022-12-18T10:29:48;101464.56;;;0.75;86.15
61568;BME280;47462;59.172;17.196;2022-12-18T10:32:22;101436.91;;;0.65;86.04
61568;BME280;47462;59.172;17.196;2022-12-18T10:34:50;101459.72;;;0.87;85.85
61568;BME280;47462;59.172;17.196;2022-12-18T10:37:21;101460.75;;;0.96;85.78
61568;BME280;47462;59.172;17.196;2022-12-18T10:40:06;101458.16;;;0.94;85.79
61568;BME280;47462;59.172;17.196;2022-12-18T10:42:32;101304.66;;;0.09;85.97
61568;BME280;47462;59.172;17.196;2022-12-18T10:45:13;101439.16;;;0.87;85.78
61568;BME280;47462;59.172;17.196;2022-12-18T10:47:47;101476.47;;;1.08;85.76
61568;BME280;47462;59.172;17.196;2022-12-18T10:50:34;101429.59;;;0.82;85.63
61568;BME280;47462;59.172;17.196;2022-12-18T10:53:02;101441.06;;;0.96;85.76
61568;BME280;47462;59.172;17.196;2022-12-18T10:55:34;101468.03;;;1.14;85.78
61568;BME280;47462;59.172;17.196;2022-12-18T10:58:37;101461.03;;;1.08;85.65
61568;BME280;47462;59.172;17.196;2022-12-18T11:01:17;101442.16;;;1.06;85.91
61568;BME280;47462;59.172;17.196;2022-12-18T11:06:22;101453.38;;;1.11;85.92
61568;BME280;47462;59.172;17.196;2022-12-18T11:09:00;101436.22;;;1.10;86.12
61568;BME280;47462;59.172;17.196;2022-12-18T11:11:33;101445.03;;;1.20;85.87
61568;BME280;47462;59.172;17.196;2022-12-18T11:14:05;101417.28;;;1.05;85.86
61568;BME280;47462;59.172;17.196;2022-12-18T11:16:37;101451.16;;;1.27;85.85
61568;BME280;47462;59.172;17.196;2022-12-18T11:21:41;101442.53;;;1.24;86.14
61568;BME280;47462;59.172;17.196;2022-12-18T11:24:36;101402.66;;;1.04;85.89
61568;BME280;47462;59.172;17.196;2022-12-18T11:27:05;101436.50;;;1.24;85.74
61568;BME280;47462;59.172;17.196;2022-12-18T11:29:38;101432.31;;;1.28;85.68
61568;BME280;47462;59.172;17.196;2022-12-18T11:37:52;101411.75;;;1.28;86.13
61568;BME280;47462;59.172;17.196;2022-12-18T11:40:30;101417.03;;;1.34;86.32
61568;BME280;47462;59.172;17.196;2022-12-18T11:43:06;101406.75;;;1.34;86.11
61568;BME280;47462;59.172;17.196;2022-12-18T11:45:40;101337.28;;;0.91;86.12
61568;BME280;47462;59.172;17.196;2022-12-18T11:48:27;101417.16;;;1.40;86.04
61568;BME280;47462;59.172;17.196;2022-12-18T11:50:56;101428.13;;;1.33;86.15
61568;BME280;47462;59.172;17.196;2022-12-18T11:53:22;101435.03;;;1.34;86.19
61568;BME280;47462;59.172;17.196;2022-12-18T12:00:52;101392.56;;;1.13;86.52
61568;BME280;47462;59.172;17.196;2022-12-18T12:12:18;101461.28;;;1.60;86.92
61568;BME280;47462;59.172;17.196;2022-12-18T12:17:35;101453.53;;;1.58;86.93
61568;BME280;47462;59.172;17.196;2022-12-18T12:23:00;101462.06;;;1.57;86.81
61568;BME280;47462;59.172;17.196;2022-12-18T12:25:44;101434.44;;;1.47;86.92
61568;BME280;47462;59.172;17.196;2022-12-18T12:36:26;101446.72;;;1.62;87.33
61568;BME280;47462;59.172;17.196;2022-12-18T12:39:01;101445.22;;;1.72;87.54
61568;BME280;47462;59.172;17.196;2022-12-18T12:41:31;101456.34;;;1.71;87.66
61568;BME280;47462;59.172;17.196;2022-12-18T12:44:22;101449.31;;;1.62;87.38
61568;BME280;47462;59.172;17.196;2022-12-18T12:46:50;101476.09;;;1.72;87.65
61568;BME280;47462;59.172;17.196;2022-12-18T12:49:19;101432.63;;;1.41;87.41
61568;BME280;47462;59.172;17.196;2022-12-18T12:52:12;101458.56;;;1.52;87.77
61568;BME280;47462;59.172;17.196;2022-12-18T12:54:42;101480.34;;;1.70;87.91
61568;BME280;47462;59.172;17.196;2022-12-18T12:57:36;101484.09;;;1.86;87.33
61568;BME280;47462;59.172;17.196;2022-12-18T13:00:12;101441.69;;;1.67;87.24
61568;BME280;47462;59.172;17.196;2022-12-18T13:02:50;101423.38;;;1.51;87.24
61568;BME280;47462;59.172;17.196;2022-12-18T13:05:30;101491.84;;;1.87;87.41
61568;BME280;47462;59.172;17.196;2022-12-18T13:08:03;101482.88;;;1.68;87.36
61568;BME280;47462;59.172;17.196;2022-12-18T13:10:37;101452.78;;;1.63;87.56
61568;BME280;47462;59.172;17.196;2022-12-18T13:13:09;101478.19;;;1.91;87.64
61568;BME280;47462;59.172;17.196;2022-12-18T13:15:43;101489.41;;;1.93;87.20
61568;BME280;47462;59.172;17.196;2022-12-18T13:20:42;101496.13;;;1.87;87.35
61568;BME280;47462;59.172;17.196;2022-12-18T13:25:58;101483.06;;;1.77;87.69
61568;BME280;47462;59.172;17.196;2022-12-18T13:31:01;101499.69;;;1.93;87.68
61568;BME280;47462;59.172;17.196;2022-12-18T13:36:31;101501.34;;;1.91;87.56
61568;BME280;47462;59.172;17.196;2022-12-18T13:41:44;101493.59;;;1.90;87.84
61568;BME280;47462;59.172;17.196;2022-12-18T13:44:32;101484.16;;;1.89;87.58
61568;BME280;47462;59.172;17.196;2022-12-18T13:46:59;101494.50;;;1.90;87.79
61568;BME280;47462;59.172;17.196;2022-12-18T13:49:39;101507.34;;;1.90;87.86
61568;BME280;47462;59.172;17.196;2022-12-18T13:52:25;101511.59;;;1.88;87.37
61568;BME280;47462;59.172;17.196;2022-12-18T13:54:53;101482.03;;;1.68;87.36
61568;BME280;47462;59.172;17.196;2022-12-18T13:57:38;101514.91;;;1.81;88.10
61568;BME280;47462;59.172;17.196;2022-12-18T14:02:49;101518.34;;;1.83;87.56
61568;BME280;47462;59.172;17.196;2022-12-18T14:05:29;101527.00;;;1.87;88.00
61568;BME280;47462;59.172;17.196;2022-12-18T14:08:12;101530.44;;;1.86;87.73
61568;BME280;47462;59.172;17.196;2022-12-18T14:10:43;101525.28;;;1.86;87.83
61568;BME280;47462;59.172;17.196;2022-12-18T14:13:10;101513.13;;;1.78;87.92
61568;BME280;47462;59.172;17.196;2022-12-18T14:15:42;101467.78;;;1.42;87.64
61568;BME280;47462;59.172;17.196;2022-12-18T14:18:21;101538.94;;;1.83;87.54
61568;BME280;47462;59.172;17.196;2022-12-18T14:20:50;101541.53;;;1.83;87.76
61568;BME280;47462;59.172;17.196;2022-12-18T14:25:51;101374.78;;;0.81;88.15
61568;BME280;47462;59.172;17.196;2022-12-18T14:28:16;101518.06;;;1.69;88.25
61568;BME280;47462;59.172;17.196;2022-12-18T14:30:44;101546.56;;;1.78;87.84
61568;BME280;47462;59.172;17.196;2022-12-18T14:33:25;101503.09;;;1.51;87.94
61568;BME280;47462;59.172;17.196;2022-12-18T14:36:04;101537.06;;;1.76;88.33